Time;durP1;ratioP1;P1;durP2;ratioP2;P2;SDS_P1;SDS_P2;PMS_P1;PMS_P2;Temp;Humidity;BMP_temperature;BMP_pressure;BME280_temperature;BME280_humidity;BME280_pressure;Samples;Min_cycle;Max_cycle;Signal;HPM_P1;HPM_P2
2022/05/02 00:00:51;;;;;;;10.85;9.18;;;5.20;99.90;;;;;;5112215;28;20043;-73
2022/05/02 00:03:17;;;;;;;12.18;9.32;;;5.20;99.90;;;;;;5095155;28;20062;-73
2022/05/02 00:05:44;;;;;;;12.82;9.45;;;5.20;99.90;;;;;;5111189;28;20118;-73
2022/05/02 00:08:10;;;;;;;11.95;8.90;;;5.20;99.90;;;;;;5112124;28;20039;-73
2022/05/02 00:10:37;;;;;;;13.50;9.77;;;5.30;99.90;;;;;;5113391;28;20114;-72
2022/05/02 00:13:02;;;;;;;13.35;8.88;;;5.20;99.90;;;;;;5112098;28;20043;-73
2022/05/02 00:15:29;;;;;;;13.82;10.70;;;5.30;99.90;;;;;;5113520;28;20044;-73
2022/05/02 00:17:58;;;;;;;11.20;8.73;;;5.30;99.90;;;;;;5111955;28;20484;-73
2022/05/02 00:20:31;;;;;;;11.70;9.45;;;5.30;99.90;;;;;;5112038;28;20046;-73
2022/05/02 00:22:58;;;;;;;11.73;9.00;;;5.20;99.90;;;;;;5113436;28;20089;-73
2022/05/02 00:25:24;;;;;;;12.18;9.38;;;5.10;99.90;;;;;;5111937;28;20471;-73
2022/05/02 00:27:50;;;;;;;14.23;9.98;;;5.10;99.90;;;;;;5112131;28;20370;-73
2022/05/02 00:30:17;;;;;;;12.13;9.35;;;5.10;99.90;;;;;;5113276;28;20042;-73
2022/05/02 00:32:43;;;;;;;10.95;8.95;;;5.00;99.90;;;;;;5113040;28;20040;-73
2022/05/02 00:35:09;;;;;;;11.20;8.55;;;4.90;99.90;;;;;;5109711;28;20082;-73
2022/05/02 00:37:40;;;;;;;10.85;8.43;;;4.90;99.90;;;;;;5094835;28;20480;-73
2022/05/02 00:40:07;;;;;;;10.50;8.63;;;4.90;99.90;;;;;;5112177;28;20425;-73
2022/05/02 00:42:34;;;;;;;11.57;8.95;;;4.80;99.90;;;;;;5111776;28;20079;-73
2022/05/02 00:44:59;;;;;;;9.45;8.40;;;4.80;99.90;;;;;;5111709;28;20044;-73
2022/05/02 00:47:26;;;;;;;11.77;9.70;;;4.80;99.90;;;;;;5113000;28;20092;-73
2022/05/02 00:49:52;;;;;;;13.55;11.10;;;4.80;99.90;;;;;;5111563;28;20048;-73
2022/05/02 00:52:19;;;;;;;16.55;11.90;;;4.80;99.90;;;;;;5111956;28;20146;-73
2022/05/02 00:54:46;;;;;;;14.43;10.63;;;4.70;99.90;;;;;;5113191;28;20046;-73
2022/05/02 00:57:13;;;;;;;15.68;11.45;;;4.70;99.90;;;;;;5111660;28;20044;-73
2022/05/02 00:59:39;;;;;;;14.73;10.68;;;4.60;99.90;;;;;;5112969;28;20126;-73
2022/05/02 01:02:07;;;;;;;14.80;10.80;;;4.50;99.90;;;;;;5112743;28;20099;-73
2022/05/02 01:04:35;;;;;;;13.68;10.77;;;4.40;99.90;;;;;;5113377;28;20055;-73
2022/05/02 01:07:11;;;;;;;15.07;11.38;;;4.40;99.90;;;;;;5115747;28;20028;-73
2022/05/02 01:09:41;;;;;;;15.23;10.98;;;4.40;99.90;;;;;;5115458;28;20047;-73
2022/05/02 01:12:19;;;;;;;15.18;10.38;;;4.40;99.90;;;;;;5115476;28;20188;-73
2022/05/02 01:14:47;;;;;;;15.27;10.55;;;4.40;99.90;;;;;;5116661;28;20039;-73
2022/05/02 01:17:13;;;;;;;13.18;10.93;;;4.40;99.90;;;;;;5115563;28;20437;-73
2022/05/02 01:19:39;;;;;;;16.17;11.85;;;4.50;99.90;;;;;;5115253;28;20136;-74
2022/05/02 01:22:07;;;;;;;12.80;9.85;;;4.50;99.90;;;;;;5116723;28;20158;-73
2022/05/02 01:24:38;;;;;;;14.15;10.52;;;4.40;99.90;;;;;;5097847;28;20559;-73
2022/05/02 01:27:05;;;;;;;15.75;10.30;;;4.40;99.90;;;;;;5114427;28;20046;-73
2022/05/02 01:29:32;;;;;;;19.85;10.93;;;4.40;99.90;;;;;;5115049;28;20044;-73
2022/05/02 01:31:59;;;;;;;14.55;11.45;;;4.50;99.90;;;;;;5116516;28;20031;-73
2022/05/02 01:34:25;;;;;;;13.48;10.05;;;4.40;99.90;;;;;;5114263;28;20036;-73
2022/05/02 01:36:50;;;;;;;13.98;11.10;;;4.40;99.90;;;;;;5116368;28;20577;-73
2022/05/02 01:39:16;;;;;;;16.95;12.05;;;4.50;99.90;;;;;;5097871;28;20052;-73
2022/05/02 01:41:42;;;;;;;16.85;10.82;;;4.40;99.90;;;;;;5097859;28;20043;-73
2022/05/02 01:44:08;;;;;;;17.17;11.25;;;4.40;99.90;;;;;;5114630;28;20073;-73
2022/05/02 01:46:34;;;;;;;17.27;12.30;;;4.30;99.90;;;;;;5114814;28;20032;-73
2022/05/02 01:49:00;;;;;;;13.73;10.32;;;4.20;99.90;;;;;;5115852;28;20070;-73
2022/05/02 01:51:25;;;;;;;17.30;11.75;;;4.20;99.90;;;;;;5114787;28;20047;-73
2022/05/02 01:53:51;;;;;;;15.40;11.70;;;4.20;99.90;;;;;;5115843;28;20040;-73
2022/05/02 01:56:17;;;;;;;17.55;11.52;;;4.20;99.90;;;;;;5114493;28;20047;-73
2022/05/02 01:58:43;;;;;;;14.98;10.30;;;4.20;99.90;;;;;;5114750;28;20032;-73
2022/05/02 02:01:09;;;;;;;15.93;11.27;;;4.20;99.90;;;;;;5114751;28;20109;-73
2022/05/02 02:03:34;;;;;;;13.00;10.45;;;4.20;99.90;;;;;;5115860;28;20492;-73
2022/05/02 02:06:00;;;;;;;16.73;11.13;;;4.30;99.90;;;;;;5113480;28;20036;-73
2022/05/02 02:08:29;;;;;;;17.25;11.45;;;4.20;99.90;;;;;;5115657;28;20404;-73
2022/05/02 02:10:59;;;;;;;15.48;10.70;;;4.30;99.90;;;;;;5114311;28;20036;-73
2022/05/02 02:13:25;;;;;;;14.43;11.27;;;4.20;99.90;;;;;;5115521;28;20039;-73
2022/05/02 02:15:51;;;;;;;16.60;12.00;;;4.20;99.90;;;;;;5114465;28;20131;-73
2022/05/02 02:18:17;;;;;;;15.15;11.45;;;4.20;99.90;;;;;;5114018;28;20075;-73
2022/05/02 02:20:45;;;;;;;13.93;10.30;;;4.20;99.90;;;;;;5115522;28;20198;-73
2022/05/02 02:23:13;;;;;;;17.92;12.00;;;4.20;99.90;;;;;;5113975;28;20039;-73
2022/05/02 02:25:39;;;;;;;18.00;11.40;;;4.10;99.90;;;;;;5113960;28;20101;-73
2022/05/02 02:28:06;;;;;;;14.52;10.45;;;4.10;99.90;;;;;;5115497;28;20028;-73
2022/05/02 02:30:32;;;;;;;15.60;10.50;;;4.10;99.90;;;;;;5114108;28;20440;-73
2022/05/02 02:32:58;;;;;;;17.25;10.95;;;4.10;99.90;;;;;;5113923;28;20115;-74
2022/05/02 02:35:25;;;;;;;12.45;10.15;;;4.10;99.90;;;;;;5111567;28;20043;-73
2022/05/02 02:37:51;;;;;;;14.82;10.65;;;4.10;99.90;;;;;;5113987;28;20051;-73
2022/05/02 02:40:17;;;;;;;13.50;10.60;;;4.10;99.90;;;;;;5114858;28;20500;-73
2022/05/02 02:42:44;;;;;;;15.23;11.95;;;4.10;99.90;;;;;;5113724;28;20553;-73
2022/05/02 02:45:10;;;;;;;17.60;12.02;;;4.10;99.90;;;;;;5114846;28;20472;-74
2022/05/02 02:47:36;;;;;;;16.33;12.43;;;4.10;99.90;;;;;;5113895;28;20028;-73
2022/05/02 02:50:02;;;;;;;14.18;11.27;;;4.10;99.90;;;;;;5114708;28;20044;-74
2022/05/02 02:52:28;;;;;;;15.70;10.63;;;4.00;99.90;;;;;;5114873;28;20044;-73
2022/05/02 02:54:54;;;;;;;13.55;9.98;;;4.00;99.90;;;;;;5113592;28;20175;-73
2022/05/02 02:57:20;;;;;;;11.43;8.73;;;3.90;99.90;;;;;;5114902;28;20039;-73
2022/05/02 02:59:45;;;;;;;14.77;9.52;;;3.80;99.90;;;;;;5096583;28;20043;-73
2022/05/02 03:02:12;;;;;;;11.65;8.55;;;3.80;99.90;;;;;;5113327;28;20361;-73
2022/05/02 03:07:24;;;;;;;11.05;9.07;;;3.70;99.90;;;;;;5114475;28;20114;-73
2022/05/02 03:09:50;;;;;;;14.27;9.35;;;3.60;99.90;;;;;;5096149;28;20119;-74
2022/05/02 03:12:17;;;;;;;12.77;9.60;;;3.50;99.90;;;;;;5114600;28;20035;-73
2022/05/02 03:14:43;;;;;;;13.52;9.88;;;3.50;99.90;;;;;;5096046;28;20047;-73
2022/05/02 03:17:08;;;;;;;15.68;12.00;;;3.50;99.90;;;;;;5096034;28;20172;-74
2022/05/02 03:19:34;;;;;;;16.60;11.98;;;3.40;99.90;;;;;;5112781;28;20047;-73
2022/05/02 03:22:00;;;;;;;14.65;11.35;;;3.50;99.90;;;;;;5112919;28;20044;-73
2022/05/02 03:24:26;;;;;;;15.25;12.10;;;3.40;99.90;;;;;;5112165;28;20046;-74
2022/05/02 03:26:52;;;;;;;18.73;12.68;;;3.40;99.90;;;;;;5114099;28;20116;-74
2022/05/02 03:29:17;;;;;;;19.23;13.13;;;3.40;99.90;;;;;;5112693;28;20044;-74
2022/05/02 03:31:43;;;;;;;17.98;12.07;;;3.40;99.90;;;;;;5095809;28;20043;-74
2022/05/02 03:34:09;;;;;;;16.73;12.18;;;3.40;99.90;;;;;;5111730;28;20042;-74
2022/05/02 03:36:35;;;;;;;17.20;12.40;;;3.40;99.90;;;;;;5113934;28;20074;-74
2022/05/02 03:39:01;;;;;;;16.33;12.85;;;3.50;99.90;;;;;;5112818;28;20476;-74
2022/05/02 03:41:27;;;;;;;18.65;13.52;;;3.50;99.90;;;;;;5113972;28;20039;-74
2022/05/02 03:43:53;;;;;;;19.15;13.15;;;3.50;99.90;;;;;;5114056;28;20037;-74
2022/05/02 03:46:19;;;;;;;18.67;13.35;;;3.50;99.90;;;;;;5112418;28;20467;-74
2022/05/02 03:48:44;;;;;;;17.25;12.93;;;3.50;99.90;;;;;;5112345;28;20035;-74
2022/05/02 03:51:11;;;;;;;21.50;14.20;;;3.40;99.90;;;;;;5112298;28;20043;-74
2022/05/02 03:53:37;;;;;;;19.20;14.05;;;3.40;99.90;;;;;;5113897;28;20136;-74
2022/05/02 03:56:03;;;;;;;21.55;14.00;;;3.40;99.90;;;;;;5113518;28;20546;-74
2022/05/02 03:58:29;;;;;;;22.45;14.60;;;3.40;99.90;;;;;;5112347;28;20040;-74
2022/05/02 04:00:55;;;;;;;22.52;13.45;;;3.40;99.90;;;;;;5112394;28;20040;-74
2022/05/02 04:03:21;;;;;;;15.38;10.95;;;3.40;99.90;;;;;;5113546;28;20043;-74
2022/05/02 04:05:47;;;;;;;14.30;9.68;;;3.40;99.90;;;;;;5109974;28;20051;-74
2022/05/02 04:08:13;;;;;;;19.10;13.45;;;3.40;99.90;;;;;;5095497;28;20036;-74
2022/05/02 04:10:38;;;;;;;15.57;11.90;;;3.40;99.90;;;;;;5113521;28;20396;-75
2022/05/02 04:13:04;;;;;;;21.25;13.13;;;3.30;99.90;;;;;;5112525;28;20039;-74
2022/05/02 04:15:30;;;;;;;15.50;11.23;;;3.30;99.90;;;;;;5112313;28;20107;-74
2022/05/02 04:17:58;;;;;;;16.77;12.57;;;3.30;99.90;;;;;;5112060;28;20471;-75
2022/05/02 04:20:24;;;;;;;13.70;11.00;;;3.20;99.90;;;;;;5113171;28;20090;-75
2022/05/02 04:22:50;;;;;;;16.77;11.98;;;3.20;99.90;;;;;;5112329;28;20055;-75
2022/05/02 04:25:16;;;;;;;21.42;13.30;;;3.20;99.90;;;;;;5111936;28;20057;-75
2022/05/02 04:27:43;;;;;;;17.13;12.50;;;3.20;99.90;;;;;;5113463;28;20043;-75
2022/05/02 04:30:10;;;;;;;13.98;11.05;;;3.20;99.90;;;;;;5113117;28;20694;-75
2022/05/02 04:32:36;;;;;;;11.50;9.70;;;3.20;99.90;;;;;;5113306;28;20043;-74
2022/05/02 04:35:03;;;;;;;9.40;8.00;;;3.30;99.90;;;;;;5109031;28;20407;-75
2022/05/02 04:37:29;;;;;;;11.35;8.93;;;3.30;99.90;;;;;;5116726;28;20048;-74
2022/05/02 04:39:55;;;;;;;17.08;9.05;;;3.30;99.90;;;;;;5116050;28;20055;-75
2022/05/02 04:42:21;;;;;;;12.07;9.75;;;3.20;99.90;;;;;;5116053;28;20133;-74
2022/05/02 04:44:47;;;;;;;12.73;10.38;;;3.20;99.90;;;;;;5117238;28;20044;-74
2022/05/02 04:47:13;;;;;;;11.10;9.18;;;3.10;99.90;;;;;;5116216;28;20071;-74
2022/05/02 04:49:38;;;;;;;14.52;9.98;;;3.20;99.90;;;;;;5117095;28;20518;-74
2022/05/02 04:52:05;;;;;;;13.20;10.00;;;3.20;99.90;;;;;;5115940;28;20036;-75
2022/05/02 04:54:30;;;;;;;11.90;9.75;;;3.20;99.90;;;;;;5117316;28;20387;-74
2022/05/02 04:56:56;;;;;;;13.82;11.23;;;3.30;99.90;;;;;;5115723;28;20051;-74
2022/05/02 04:59:22;;;;;;;15.05;11.95;;;3.30;99.90;;;;;;5115783;28;20046;-75
2022/05/02 05:01:48;;;;;;;17.27;11.70;;;3.40;99.90;;;;;;5115583;28;20043;-74
2022/05/02 05:04:14;;;;;;;15.60;11.00;;;3.40;99.90;;;;;;5096301;28;20117;-74
2022/05/02 05:06:40;;;;;;;21.10;13.35;;;3.50;99.90;;;;;;5117012;28;20043;-75
2022/05/02 05:09:06;;;;;;;23.42;13.27;;;3.60;99.90;;;;;;5116930;28;20038;-74
2022/05/02 05:11:59;;;;;;;19.83;12.95;;;3.70;99.90;;;;;;5116850;28;20036;-74
2022/05/02 05:18:15;;;;;;;20.02;14.20;;;3.80;99.90;;;;;;5115484;28;20036;-74
2022/05/02 05:20:56;;;;;;;26.13;15.05;;;3.90;99.90;;;;;;5115498;28;20039;-74
2022/05/02 05:24:07;;;;;;;23.98;14.93;;;4.00;99.90;;;;;;5116758;28;20043;-74
2022/05/02 05:26:35;;;;;;;;;;;4.00;99.90;;;;;;5100507;27;20055;-74
2022/05/02 05:29:22;;;;;;;21.75;15.13;;;4.20;99.90;;;;;;5116472;28;19939;-74
2022/05/02 05:32:14;;;;;;;22.55;16.50;;;4.30;99.90;;;;;;5115295;28;20043;-74
2022/05/02 05:35:02;;;;;;;36.95;18.27;;;4.50;99.90;;;;;;5095824;28;20046;-75
2022/05/02 05:37:42;;;;;;;25.55;17.65;;;4.60;99.90;;;;;;5115191;28;20046;-74
2022/05/02 05:40:27;;;;;;;;;;;4.80;99.90;;;;;;5115365;28;20048;-75
2022/05/02 05:43:18;;;;;;;24.02;16.85;;;4.90;99.90;;;;;;5116314;28;19998;-74
2022/05/02 05:46:23;;;;;;;32.65;19.38;;;5.10;99.90;;;;;;5115963;28;20040;-75
2022/05/02 05:49:13;;;;;;;28.35;18.23;;;5.30;99.90;;;;;;5096942;28;20361;-75
2022/05/02 05:51:42;;;;;;;;;;;5.40;99.90;;;;;;5118529;28;20047;-75
2022/05/02 05:54:26;;;;;;;25.95;17.85;;;5.60;99.90;;;;;;5116013;28;19969;-75
2022/05/02 05:57:27;;;;;;;27.27;18.42;;;5.80;99.90;;;;;;5114618;28;20043;-74
2022/05/02 06:00:10;;;;;;;26.90;19.02;;;6.00;99.90;;;;;;5115988;27;20455;-77
2022/05/02 06:02:49;;;;;;;24.38;17.98;;;6.20;99.90;;;;;;5114532;28;20036;-76
2022/05/02 06:05:16;;;;;;;21.20;16.67;;;6.40;99.90;;;;;;5112507;28;20075;-76
2022/05/02 06:07:44;;;;;;;26.08;17.40;;;6.50;99.90;;;;;;5114431;28;20043;-77
2022/05/02 06:10:10;;;;;;;26.42;16.60;;;6.70;99.90;;;;;;5115773;28;20038;-74
2022/05/02 06:12:39;;;;;;;24.10;18.17;;;6.90;99.90;;;;;;5115340;28;20042;-75
2022/05/02 06:20:39;;;;;;;23.75;14.90;;;7.60;99.90;;;;;;5114203;28;20127;-74
2022/05/02 06:23:10;;;;;;;19.10;14.90;;;7.90;99.90;;;;;;5115400;28;20046;-74
2022/05/02 06:25:40;;;;;;;14.80;12.25;;;8.30;99.90;;;;;;5115239;28;20046;-75
2022/05/02 06:28:08;;;;;;;14.43;11.40;;;8.70;99.90;;;;;;5113930;28;20043;-75
2022/05/02 06:30:41;;;;;;;13.73;10.73;;;9.00;99.90;;;;;;5115442;28;20055;-75
2022/05/02 06:33:13;;;;;;;13.85;11.15;;;9.20;99.90;;;;;;5115202;28;20039;-75
2022/05/02 06:36:01;;;;;;;16.83;11.43;;;9.50;99.90;;;;;;5111704;28;20118;-75
2022/05/02 06:39:14;;;;;;;14.85;10.60;;;9.70;99.90;;;;;;5114040;28;20510;-75
2022/05/02 06:42:00;;;;;;;16.20;10.43;;;10.10;99.90;;;;;;5092073;28;20032;-75
2022/05/02 06:44:38;;;;;;;15.07;11.02;;;10.30;99.90;;;;;;5075486;28;20054;-75
2022/05/02 06:47:27;;;;;;;13.80;10.55;;;10.50;99.90;;;;;;5109083;28;20043;-75
2022/05/02 06:49:57;;;;;;;11.75;9.80;;;10.70;99.90;;;;;;5110646;28;20060;-75
2022/05/02 06:52:56;;;;;;;12.27;9.68;;;11.00;99.90;;;;;;5114044;28;20039;-75
2022/05/02 06:56:03;;;;;;;10.80;8.95;;;11.20;99.90;;;;;;5113313;28;20073;-75
2022/05/02 06:59:02;;;;;;;12.48;9.77;;;11.60;99.90;;;;;;5070263;28;20048;-75
2022/05/02 07:01:50;;;;;;;12.35;9.50;;;11.90;99.90;;;;;;5077731;28;20048;-75
2022/05/02 07:04:31;;;;;;;13.02;10.15;;;12.20;99.90;;;;;;5090904;28;20732;-75
2022/05/02 07:07:24;;;;;;;13.00;9.50;;;12.20;99.90;;;;;;5092867;28;20178;-75
2022/05/02 07:10:03;;;;;;;12.75;9.48;;;12.30;99.90;;;;;;5111735;28;20407;-75
2022/05/02 07:12:31;;;;;;;13.68;9.68;;;12.30;99.90;;;;;;5114383;28;20028;-75
2022/05/02 07:15:14;;;;;;;13.07;9.77;;;12.40;99.90;;;;;;5113002;28;20130;-76
2022/05/02 07:17:51;;;;;;;11.13;9.65;;;12.60;99.90;;;;;;5113956;28;20027;-76
2022/05/02 07:20:42;;;;;;;13.70;9.77;;;12.70;99.90;;;;;;5131172;27;20389;-75
2022/05/02 07:23:17;;;;;;;12.63;9.55;;;12.90;99.90;;;;;;5109684;28;20054;-75
2022/05/02 07:26:00;;;;;;;11.10;9.18;;;13.10;99.90;;;;;;5091865;28;20103;-76
2022/05/02 07:28:44;;;;;;;12.10;9.60;;;13.20;99.90;;;;;;5109942;28;20379;-75
2022/05/02 07:31:12;;;;;;;12.10;9.77;;;13.50;99.90;;;;;;5110105;28;20082;-76
2022/05/02 07:33:40;;;;;;;10.38;8.88;;;13.70;99.90;;;;;;5108981;28;20044;-76
2022/05/02 07:36:09;;;;;;;11.60;9.38;;;13.90;99.90;;;;;;5089726;28;20044;-79
2022/05/02 07:38:36;;;;;;;10.95;8.82;;;14.10;99.90;;;;;;5089112;28;20465;-76
2022/05/02 07:41:25;;;;;;;11.23;9.18;;;14.20;99.90;;;;;;5093693;28;20127;-77
2022/05/02 07:44:03;;;;;;;10.15;8.55;;;14.30;99.90;;;;;;5089386;28;20040;-78
2022/05/02 07:46:43;;;;;;;10.40;9.00;;;14.50;99.90;;;;;;5089084;28;20063;-77
2022/05/02 07:49:13;;;;;;;10.70;8.32;;;14.50;99.90;;;;;;5089233;28;20110;-77
2022/05/02 07:51:47;;;;;;;11.38;8.82;;;14.80;99.90;;;;;;5089200;28;20040;-76
2022/05/02 07:54:16;;;;;;;13.10;9.52;;;15.00;99.90;;;;;;5088960;28;20051;-76
2022/05/02 07:56:42;;;;;;;13.65;9.43;;;15.20;99.90;;;;;;5089242;28;20117;-76
2022/05/02 07:59:14;;;;;;;11.23;8.60;;;15.10;99.90;;;;;;5088722;28;20036;-76
2022/05/02 08:01:40;;;;;;;11.43;9.20;;;15.10;99.90;;;;;;5088825;28;20118;-82
2022/05/02 08:04:05;;;;;;;10.95;9.18;;;15.30;99.90;;;;;;5085714;28;20181;-75
2022/05/02 08:06:43;;;;;;;11.40;8.82;;;15.60;99.90;;;;;;5088249;28;20039;-76
2022/05/02 08:09:24;;;;;;;10.35;9.23;;;15.80;99.90;;;;;;5087931;28;20048;-74
2022/05/02 08:12:01;;;;;;;11.80;9.43;;;16.10;99.90;;;;;;5088480;28;20044;-74
2022/05/02 08:15:07;;;;;;;9.90;8.73;;;16.40;99.90;;;;;;5088686;28;20105;-75
2022/05/02 08:17:54;;;;;;;11.30;8.32;;;16.30;99.90;;;;;;5089903;28;20536;-76
2022/05/02 08:20:42;;;;;;;11.20;8.20;;;16.50;99.90;;;;;;5109019;28;20135;-74
2022/05/02 08:29:24;;;;;;;11.63;8.65;;;16.80;99.90;;;;;;5108745;28;20050;-75
2022/05/02 08:32:10;;;;;;;10.30;8.75;;;17.00;99.90;;;;;;5094787;28;20141;-75
2022/05/02 08:34:39;;;;;;;11.00;8.82;;;17.10;99.90;;;;;;5094216;28;20070;-75
2022/05/02 08:37:49;;;;;;;8.23;7.32;;;17.30;99.90;;;;;;5094159;28;20052;-76
2022/05/02 08:40:38;;;;;;;9.23;7.43;;;17.30;99.90;;;;;;5081457;28;20609;-76
2022/05/02 08:43:16;;;;;;;9.50;7.30;;;17.50;99.90;;;;;;5094547;28;20059;-76
2022/05/02 08:45:48;;;;;;;10.07;8.07;;;17.90;99.90;;;;;;5094939;28;20076;-77
2022/05/02 08:48:38;;;;;;;10.00;7.32;;;18.20;99.90;;;;;;5094669;28;20104;-76
2022/05/02 08:51:25;;;;;;;10.63;7.43;;;18.30;99.70;;;;;;5094668;28;20070;-76
2022/05/02 08:54:25;;;;;;;10.32;7.85;;;18.40;97.80;;;;;;5094044;28;20433;-77
2022/05/02 08:57:14;;;;;;;10.68;6.95;;;18.40;97.30;;;;;;5094611;28;20342;-76
2022/05/02 08:59:43;;;;;;;9.57;7.95;;;18.70;96.00;;;;;;5065437;28;20048;-77
2022/05/02 09:02:33;;;;;;;8.60;7.28;;;18.90;97.20;;;;;;5094315;28;20083;-76
2022/05/02 09:05:26;;;;;;;8.30;7.10;;;19.10;95.80;;;;;;5093667;28;20353;-77
2022/05/02 09:08:40;;;;;;;7.10;6.40;;;19.20;93.00;;;;;;5094258;28;20044;-76
2022/05/02 09:11:32;;;;;;;8.73;7.10;;;19.50;92.70;;;;;;5085828;28;20040;-78
2022/05/02 09:14:19;;;;;;;8.30;6.45;;;19.80;91.80;;;;;;5095308;28;20468;-78
2022/05/02 09:17:30;;;;;;;9.80;7.40;;;20.00;84.30;;;;;;5094160;28;20364;-76
2022/05/02 09:20:21;;;;;;;8.77;7.57;;;20.30;83.90;;;;;;5057142;28;20441;-78
2022/05/02 09:23:24;;;;;;;8.05;6.75;;;20.20;80.80;;;;;;5073792;28;20453;-77
2022/05/02 09:25:54;;;;;;;7.13;5.90;;;20.30;78.70;;;;;;5073398;28;20453;-76
2022/05/02 09:28:22;;;;;;;9.93;7.53;;;20.40;75.70;;;;;;5074106;28;20353;-76
2022/05/02 09:31:12;;;;;;;8.70;7.10;;;20.60;72.10;;;;;;5056637;28;20047;-76
2022/05/02 09:34:08;;;;;;;22.90;7.18;;;20.70;66.60;;;;;;5073840;28;20037;-77
2022/05/02 09:36:54;;;;;;;8.27;6.10;;;20.40;68.40;;;;;;5073870;28;20047;-77
2022/05/02 09:39:24;;;;;;;5.68;5.07;;;20.10;66.60;;;;;;5073304;28;20043;-77
2022/05/02 09:42:21;;;;;;;8.88;5.63;;;20.20;63.30;;;;;;5072550;28;20425;-76
2022/05/02 09:51:22;;;;;;;9.90;6.25;;;20.60;65.90;;;;;;5073480;28;20142;-76
2022/05/02 09:57:17;;;;;;;8.07;6.28;;;21.00;66.70;;;;;;5073521;28;20197;-77
2022/05/02 10:02:46;;;;;;;8.15;5.45;;;21.00;65.10;;;;;;5044161;28;20048;-76
2022/05/02 10:05:36;;;;;;;7.80;6.20;;;21.00;63.00;;;;;;5073203;28;20071;-76
2022/05/02 10:08:15;;;;;;;6.57;5.22;;;20.80;62.60;;;;;;5072941;28;20048;-77
2022/05/02 10:10:53;;;;;;;6.47;4.80;;;21.00;64.90;;;;;;5072725;28;20044;-78
2022/05/02 10:13:44;;;;;;;6.78;5.70;;;21.20;63.70;;;;;;5072780;28;20080;-78
2022/05/02 10:16:47;;;;;;;7.53;5.13;;;21.40;59.50;;;;;;5072896;28;20052;-77
2022/05/02 10:19:46;;;;;;;7.28;5.00;;;21.00;58.10;;;;;;5072308;28;20067;-77
2022/05/02 10:22:14;;;;;;;7.63;6.27;;;20.80;59.90;;;;;;5072956;28;20427;-78
2022/05/02 10:25:02;;;;;;;7.72;6.72;;;21.00;60.80;;;;;;5072813;28;20048;-77
2022/05/02 10:28:00;;;;;;;7.82;6.00;;;20.90;59.10;;;;;;5072569;28;20066;-78
2022/05/02 10:30:40;;;;;;;5.47;4.45;;;20.60;58.40;;;;;;5072876;28;20045;-78
2022/05/02 10:33:13;;;;;;;8.23;5.35;;;20.80;57.70;;;;;;5072986;28;20052;-78
2022/05/02 10:35:44;;;;;;;9.18;5.40;;;20.70;57.80;;;;;;5073796;28;20055;-76
2022/05/02 10:38:18;;;;;;;6.80;4.50;;;21.00;57.80;;;;;;5073416;28;20087;-78
2022/05/02 10:40:50;;;;;;;6.82;5.32;;;21.20;56.70;;;;;;5072751;28;20075;-77
2022/05/02 10:43:26;;;;;;;6.10;5.35;;;21.00;55.70;;;;;;5072531;28;20060;-76
2022/05/02 10:45:53;;;;;;;4.78;4.25;;;20.80;55.40;;;;;;5072884;28;20128;-76
2022/05/02 10:48:18;;;;;;;6.50;4.47;;;20.70;54.10;;;;;;5071720;28;20049;-76
2022/05/02 10:51:08;;;;;;;6.97;4.97;;;20.60;52.30;;;;;;5072901;28;20062;-77
2022/05/02 10:53:54;;;;;;;5.78;4.95;;;20.60;54.20;;;;;;5072398;28;20547;-76
2022/05/02 10:56:44;;;;;;;6.85;4.63;;;20.90;55.90;;;;;;5072722;28;20080;-77
2022/05/02 10:59:13;;;;;;;7.05;4.80;;;21.20;57.00;;;;;;5064695;28;20362;-78
2022/05/02 11:02:07;;;;;;;6.10;4.85;;;21.50;56.20;;;;;;5072384;28;20052;-76
2022/05/02 11:04:44;;;;;;;6.78;5.90;;;21.80;57.40;;;;;;5072492;28;20046;-78
2022/05/02 11:07:41;;;;;;;7.22;5.03;;;22.10;57.10;;;;;;5071619;28;20392;-77
2022/05/02 11:10:09;;;;;;;5.60;4.97;;;22.40;57.50;;;;;;5072372;28;20052;-75
2022/05/02 11:12:46;;;;;;;6.30;5.03;;;22.50;55.20;;;;;;5072622;28;20040;-76
2022/05/02 11:15:21;;;;;;;6.18;5.25;;;22.60;53.40;;;;;;5077386;28;20037;-77
2022/05/02 11:20:41;;;;;;;7.00;5.40;;;22.70;53.20;;;;;;5088315;28;20075;-79
2022/05/02 11:21:11;;;;;;;6.28;4.90;;;22.70;53.00;;;;;;5074657;28;20055;-76
2022/05/02 11:24:04;;;;;;;7.45;5.40;;;22.50;52.80;;;;;;5092294;28;20499;-79
2022/05/02 11:26:45;;;;;;;7.15;5.45;;;22.30;50.10;;;;;;5091603;28;20111;-77
2022/05/02 11:29:28;;;;;;;6.65;5.78;;;22.00;51.90;;;;;;5092590;28;20044;-77
2022/05/02 11:32:02;;;;;;;7.50;5.53;;;21.80;54.30;;;;;;5091457;28;20250;-77
2022/05/02 11:34:36;;;;;;;8.05;6.00;;;21.50;54.60;;;;;;5091126;28;20048;-78
2022/05/02 11:37:06;;;;;;;9.80;5.50;;;21.60;56.10;;;;;;5091607;28;20040;-78
2022/05/02 11:40:00;;;;;;;7.35;5.22;;;21.90;55.60;;;;;;5090973;28;20083;-78
2022/05/02 11:42:33;;;;;;;5.82;5.22;;;22.10;54.20;;;;;;5091651;28;20116;-78
2022/05/02 11:45:09;;;;;;;6.20;5.40;;;22.20;53.40;;;;;;5091924;28;20052;-78
2022/05/02 11:47:57;;;;;;;6.95;4.97;;;22.30;54.30;;;;;;5092222;28;20101;-78
2022/05/02 11:50:24;;;;;;;7.18;5.03;;;22.30;54.30;;;;;;5092172;28;20044;-77
2022/05/02 11:52:55;;;;;;;6.13;5.30;;;22.30;53.50;;;;;;5091202;28;20040;-79
2022/05/02 11:55:29;;;;;;;7.82;4.80;;;21.90;52.10;;;;;;5091349;28;20032;-78
2022/05/02 11:58:19;;;;;;;5.88;5.20;;;21.30;53.20;;;;;;5092104;28;20071;-76
2022/05/02 12:00:50;;;;;;;9.02;5.28;;;21.00;52.00;;;;;;5092062;28;20433;-78
2022/05/02 12:03:22;;;;;;;6.63;5.15;;;21.10;53.90;;;;;;5092165;28;20439;-78
2022/05/02 12:05:55;;;;;;;5.70;4.82;;;21.30;54.00;;;;;;5094253;28;20078;-79
2022/05/02 12:08:32;;;;;;;8.23;5.82;;;21.60;53.30;;;;;;5096223;28;20083;-79
2022/05/02 12:11:16;;;;;;;5.57;5.03;;;21.80;53.90;;;;;;5094832;28;20437;-80
2022/05/02 12:13:47;;;;;;;5.63;5.03;;;22.00;56.20;;;;;;5094780;28;20097;-78
2022/05/02 12:16:18;;;;;;;6.53;5.03;;;22.00;53.30;;;;;;5094708;28;20048;-79
2022/05/02 12:18:55;;;;;;;6.57;5.35;;;21.60;51.90;;;;;;5091015;28;20092;-79
2022/05/02 12:21:42;;;;;;;5.63;4.88;;;20.90;53.70;;;;;;5075124;28;20049;-81
2022/05/02 12:24:09;;;;;;;6.18;5.53;;;20.10;53.50;;;;;;5091075;28;20319;-79
2022/05/02 12:26:52;;;;;;;7.10;5.40;;;19.60;55.00;;;;;;5091270;28;20072;-79
2022/05/02 12:29:19;;;;;;;7.97;5.80;;;19.50;55.60;;;;;;5091315;28;20117;-78
2022/05/02 12:32:03;;;;;;;6.45;5.45;;;19.70;57.40;;;;;;5091093;28;20056;-79
2022/05/02 12:34:40;;;;;;;6.88;4.78;;;20.20;56.40;;;;;;5075153;28;20082;-79
2022/05/02 12:37:20;;;;;;;5.63;4.97;;;20.50;56.10;;;;;;5090713;28;20040;-79
2022/05/02 12:39:49;;;;;;;8.35;6.15;;;20.90;55.90;;;;;;5090622;28;20045;-81
2022/05/02 12:42:18;;;;;;;6.18;5.53;;;21.10;56.90;;;;;;5074746;28;20341;-80
2022/05/02 12:45:00;;;;;;;7.93;5.60;;;20.80;57.00;;;;;;5074413;28;20044;-79
2022/05/02 12:47:33;;;;;;;11.23;5.43;;;20.40;57.90;;;;;;5090656;28;20044;-79
2022/05/02 12:50:21;;;;;;;7.47;6.05;;;20.00;59.10;;;;;;5090810;28;20036;-80
2022/05/02 12:52:51;;;;;;;7.45;6.10;;;19.70;58.80;;;;;;5090531;28;20048;-80
2022/05/02 12:55:20;;;;;;;6.43;5.57;;;19.70;58.80;;;;;;5074182;28;20063;-78
2022/05/02 13:00:41;;;;;;;6.93;5.50;;;19.80;57.80;;;;;;5090485;28;20438;-79
2022/05/02 13:03:10;;;;;;;6.75;5.30;;;19.80;57.90;;;;;;5090377;28;20053;-80
2022/05/02 13:05:49;;;;;;;8.32;6.00;;;19.90;56.90;;;;;;5089984;28;20343;-77
2022/05/02 13:08:19;;;;;;;7.38;5.50;;;20.00;56.40;;;;;;5073869;28;20086;-80
2022/05/02 13:10:50;;;;;;;7.78;5.10;;;20.20;57.10;;;;;;5103177;28;20468;-79
2022/05/02 13:13:17;;;;;;;9.70;6.13;;;20.30;58.70;;;;;;5094391;28;20044;-77
2022/05/02 13:15:52;;;;;;;8.68;5.38;;;20.30;59.00;;;;;;5093259;28;20131;-79
2022/05/02 13:18:20;;;;;;;9.80;6.72;;;20.00;58.90;;;;;;5093754;28;20060;-77
2022/05/02 13:21:05;;;;;;;7.50;6.03;;;19.60;59.60;;;;;;5093182;28;20058;-79
2022/05/02 13:23:43;;;;;;;7.43;5.82;;;19.40;59.00;;;;;;5076636;28;20040;-79
2022/05/02 13:26:18;;;;;;;7.22;6.20;;;19.40;59.30;;;;;;5093782;28;20146;-78
2022/05/02 13:29:16;;;;;;;5.65;4.95;;;19.50;60.50;;;;;;5093948;28;20046;-77
2022/05/02 13:31:44;;;;;;;8.60;5.43;;;19.70;59.40;;;;;;5082280;28;20472;-79
2022/05/02 13:34:21;;;;;;;8.50;5.65;;;19.80;57.50;;;;;;5093313;28;20043;-79
2022/05/02 13:36:50;;;;;;;7.85;5.70;;;20.10;59.20;;;;;;5092868;28;20430;-78
2022/05/02 13:39:22;;;;;;;8.05;5.38;;;20.20;59.00;;;;;;5093506;28;20051;-78
2022/05/02 13:42:33;;;;;;;7.90;5.72;;;20.20;59.50;;;;;;5092947;28;20059;-78
2022/05/02 13:45:03;;;;;;;7.10;5.65;;;20.30;60.20;;;;;;5092699;28;20048;-78
2022/05/02 13:47:46;;;;;;;6.65;5.50;;;20.40;59.70;;;;;;5093781;28;20090;-78
2022/05/02 13:50:18;;;;;;;6.78;5.50;;;20.60;58.20;;;;;;5093394;28;20472;-78
2022/05/02 13:52:46;;;;;;;7.93;4.85;;;20.50;57.50;;;;;;5093464;28;20436;-77
2022/05/02 13:55:33;;;;;;;8.18;5.15;;;20.20;58.60;;;;;;5092762;28;20499;-77